Time;durP1;ratioP1;P1;durP2;ratioP2;P2;SDS_P1;SDS_P2;PMS_P1;PMS_P2;Temp;Humidity;BMP_temperature;BMP_pressure;BME280_temperature;BME280_humidity;BME280_pressure;Samples;Min_cycle;Max_cycle;Signal;HPM_P1;HPM_P2
2022/04/26 03:36:39;;;;;;;1.53;1.40;;;9.40;99.90;;;;;;5073117;28;20447;-48
2022/04/26 03:39:07;;;;;;;1.60;1.50;;;9.10;99.90;;;;;;5072779;28;20511;-49
2022/04/26 03:41:35;;;;;;;1.70;1.60;;;8.70;99.90;;;;;;5072716;28;20950;-48
2022/04/26 03:44:02;;;;;;;6.10;2.70;;;8.90;99.90;;;;;;5072404;28;20464;-48
2022/04/26 03:46:30;;;;;;;6.30;3.33;;;9.10;99.90;;;;;;5072729;28;20497;-48
2022/04/26 03:48:58;;;;;;;2.13;1.90;;;9.20;99.90;;;;;;5072392;28;20439;-48
2022/04/26 03:51:25;;;;;;;2.07;1.60;;;9.00;99.90;;;;;;5072210;28;20470;-49
2022/04/26 03:53:52;;;;;;;2.10;1.80;;;8.40;99.90;;;;;;5072253;28;20468;-48
2022/04/26 03:56:19;;;;;;;1.97;1.60;;;8.30;99.90;;;;;;5072374;28;20440;-48
2022/04/26 03:58:45;;;;;;;1.80;1.70;;;8.50;99.90;;;;;;5072198;28;20558;-48
2022/04/26 04:01:12;;;;;;;3.40;2.00;;;8.70;99.90;;;;;;5072268;28;20518;-48
2022/04/26 04:03:39;;;;;;;3.03;2.30;;;8.80;99.90;;;;;;5071469;28;20468;-48
2022/04/26 04:06:08;;;;;;;4.33;3.97;;;9.00;99.90;;;;;;5072294;28;20472;-48
2022/04/26 04:08:35;;;;;;;3.10;2.73;;;9.10;99.90;;;;;;5072210;28;20463;-48
2022/04/26 04:11:02;;;;;;;2.10;1.90;;;9.20;99.90;;;;;;5071850;28;21009;-48
2022/04/26 04:13:29;;;;;;;2.30;1.40;;;9.20;99.90;;;;;;5071746;28;20492;-48
2022/04/26 04:15:56;;;;;;;2.20;1.67;;;9.20;99.90;;;;;;5071943;28;20445;-49
2022/04/26 04:21:17;;;;;;;1.83;1.57;;;9.10;99.90;;;;;;5035499;28;20490;-48
2022/04/26 04:23:44;;;;;;;2.03;1.30;;;9.30;99.90;;;;;;5070955;28;20999;-48
2022/04/26 04:26:11;;;;;;;2.23;1.50;;;9.40;99.90;;;;;;5071596;28;20477;-49
2022/04/26 04:28:38;;;;;;;2.20;1.87;;;9.40;99.90;;;;;;5071655;28;20445;-48
2022/04/26 04:31:06;;;;;;;3.10;1.77;;;9.50;99.90;;;;;;5071671;28;20459;-49
2022/04/26 04:33:33;;;;;;;2.10;1.90;;;9.20;99.90;;;;;;5071551;28;20551;-48
2022/04/26 04:35:59;;;;;;;4.07;2.57;;;9.20;99.90;;;;;;5071779;28;20444;-48
2022/04/26 04:38:28;;;;;;;3.93;2.40;;;9.20;99.90;;;;;;5071319;28;20447;-48
2022/04/26 04:40:55;;;;;;;14.60;7.93;;;9.30;99.90;;;;;;5071258;28;21008;-48
2022/04/26 04:43:22;;;;;;;5.57;3.00;;;9.30;99.90;;;;;;5071372;28;20692;-48
2022/04/26 04:45:48;;;;;;;5.70;2.90;;;9.30;99.90;;;;;;5071474;28;20527;-48
2022/04/26 04:48:16;;;;;;;4.07;3.67;;;9.20;99.90;;;;;;5071134;28;20532;-48
2022/04/26 04:50:43;;;;;;;7.40;4.70;;;9.30;99.90;;;;;;5071197;28;20488;-48
2022/04/26 04:53:10;;;;;;;5.97;4.43;;;9.40;99.90;;;;;;5070812;28;20500;-48
2022/04/26 04:55:39;;;;;;;35.43;19.53;;;9.60;99.90;;;;;;5071570;28;20448;-48
2022/04/26 04:58:07;;;;;;;10.67;7.30;;;9.70;99.90;;;;;;5071036;28;20466;-48
2022/04/26 05:00:34;;;;;;;2.13;1.70;;;9.90;99.90;;;;;;5070817;28;20475;-49
2022/04/26 05:03:00;;;;;;;2.83;1.93;;;9.90;99.90;;;;;;5070905;28;20547;-48
2022/04/26 05:05:27;;;;;;;2.73;1.90;;;10.00;99.90;;;;;;5070872;28;20489;-49
2022/04/26 05:07:54;;;;;;;4.97;3.60;;;10.00;99.90;;;;;;5070692;28;20870;-48
2022/04/26 05:10:21;;;;;;;5.50;5.00;;;10.00;99.90;;;;;;5071085;28;20505;-48
2022/04/26 05:12:50;;;;;;;5.47;4.10;;;10.10;99.90;;;;;;5070311;28;20490;-48
2022/04/26 05:15:16;;;;;;;7.40;6.70;;;10.20;99.90;;;;;;5070248;28;20479;-48
2022/04/26 05:17:43;;;;;;;6.80;4.47;;;10.20;99.90;;;;;;5070972;28;20947;-49
2022/04/26 05:20:11;;;;;;;5.10;4.27;;;9.90;99.90;;;;;;5070905;28;20476;-48
2022/04/26 05:25:19;;;;;;;11.37;7.43;;;9.60;99.90;;;;;;5068588;28;20425;-49
2022/04/26 05:27:46;;;;;;;5.00;4.50;;;9.60;99.90;;;;;;5071328;28;20470;-49
2022/04/26 05:30:15;;;;;;;14.77;8.03;;;9.90;99.90;;;;;;5070604;28;20523;-48
2022/04/26 05:32:42;;;;;;;3.70;3.40;;;10.10;99.90;;;;;;5070631;28;20472;-48
2022/04/26 05:35:10;;;;;;;3.40;2.80;;;10.30;99.90;;;;;;5070950;28;20841;-48
2022/04/26 05:37:38;;;;;;;6.33;3.07;;;10.40;99.90;;;;;;5070951;28;20436;-48
2022/04/26 05:40:06;;;;;;;3.03;2.60;;;10.40;99.90;;;;;;5070625;28;20886;-48
2022/04/26 05:42:37;;;;;;;5.50;4.10;;;10.50;99.90;;;;;;5070421;28;20867;-48
2022/04/26 05:45:04;;;;;;;2.67;2.43;;;10.40;99.90;;;;;;5070664;28;20468;-48
2022/04/26 05:47:33;;;;;;;11.23;8.50;;;10.10;99.90;;;;;;5070439;28;20503;-47
2022/04/26 05:49:59;;;;;;;3.53;3.20;;;10.40;99.90;;;;;;5070672;28;20491;-48
2022/04/26 05:52:26;;;;;;;2.57;2.37;;;10.30;99.90;;;;;;5070299;28;20945;-49
2022/04/26 05:54:53;;;;;;;3.70;3.40;;;10.50;99.90;;;;;;5070847;22;20926;-46
2022/04/26 05:57:20;;;;;;;26.43;8.17;;;10.50;99.90;;;;;;5049614;28;20441;-45
2022/04/26 05:59:47;;;;;;;6.20;4.17;;;10.30;99.90;;;;;;5049259;28;20522;-47
2022/04/26 06:02:14;;;;;;;137.47;21.60;;;10.20;99.90;;;;;;5049324;28;20539;-46
2022/04/26 06:04:42;;;;;;;10.40;5.70;;;10.40;99.90;;;;;;5049322;28;20483;-46
2022/04/26 06:07:09;;;;;;;5.33;4.37;;;10.60;99.90;;;;;;5049585;28;20490;-50
2022/04/26 06:09:37;;;;;;;21.60;19.30;;;10.80;99.90;;;;;;5049958;28;20535;-47
2022/04/26 06:12:05;;;;;;;5.73;4.50;;;10.80;99.90;;;;;;5050625;28;20441;-48
2022/04/26 06:14:32;;;;;;;2.70;2.40;;;10.90;99.90;;;;;;5050564;28;20540;-46
2022/04/26 06:16:59;;;;;;;2.53;2.30;;;11.00;99.90;;;;;;5050397;28;20520;-46
2022/04/26 06:19:26;;;;;;;32.63;7.53;;;11.10;99.90;;;;;;5049735;28;20500;-49
2022/04/26 06:21:54;;;;;;;6.40;4.40;;;11.10;99.90;;;;;;5049286;28;20441;-48
2022/04/26 06:24:21;;;;;;;6.17;4.80;;;11.10;99.90;;;;;;5048784;28;20543;-46
2022/04/26 06:26:48;;;;;;;13.67;6.80;;;11.30;99.90;;;;;;5049051;28;20957;-45
2022/04/26 06:29:15;;;;;;;25.77;20.73;;;11.50;99.90;;;;;;5049198;28;20520;-46
2022/04/26 06:31:42;;;;;;;5.17;3.73;;;11.70;99.90;;;;;;5049449;28;21157;-46
2022/04/26 06:34:09;;;;;;;31.93;6.30;;;11.80;99.90;;;;;;5049113;28;20465;-45
2022/04/26 06:36:36;;;;;;;12.73;3.90;;;11.80;99.90;;;;;;5050216;28;20468;-45
2022/04/26 06:39:04;;;;;;;2.30;1.60;;;11.90;99.90;;;;;;5050260;28;20503;-45
2022/04/26 06:41:31;;;;;;;1.83;1.73;;;11.80;99.90;;;;;;5050117;28;20564;-45
2022/04/26 06:43:58;;;;;;;4.43;3.63;;;11.70;99.90;;;;;;5049836;28;20628;-46
2022/04/26 06:46:25;;;;;;;10.37;7.70;;;11.90;99.90;;;;;;5051287;28;20523;-46
2022/04/26 06:48:57;;;;;;;5.20;2.83;;;12.00;99.90;;;;;;5052577;28;20445;-48
2022/04/26 06:51:24;;;;;;;30.93;11.73;;;12.10;99.90;;;;;;5052740;28;20965;-46
2022/04/26 06:53:51;;;;;;;7.13;4.50;;;12.20;99.90;;;;;;5052155;28;20473;-45
2022/04/26 06:56:19;;;;;;;2.50;2.30;;;12.20;99.90;;;;;;5052453;28;20456;-46
2022/04/26 06:58:46;;;;;;;15.80;6.60;;;12.20;99.90;;;;;;5052683;28;20441;-46
2022/04/26 07:01:13;;;;;;;2.37;2.17;;;12.10;99.90;;;;;;5052879;28;20539;-49
2022/04/26 07:03:40;;;;;;;2.60;1.90;;;12.00;99.90;;;;;;5052944;28;20534;-46
2022/04/26 07:06:07;;;;;;;3.80;3.40;;;11.70;99.90;;;;;;5053610;28;20528;-45
2022/04/26 07:08:34;;;;;;;2.20;2.00;;;11.80;99.90;;;;;;5053207;28;20524;-45
2022/04/26 07:11:01;;;;;;;2.93;2.37;;;11.90;99.90;;;;;;5053332;28;20491;-45
2022/04/26 07:13:30;;;;;;;3.00;2.70;;;12.00;99.90;;;;;;5052247;28;20519;-45
2022/04/26 07:15:56;;;;;;;2.70;2.20;;;12.10;99.90;;;;;;5052170;28;20481;-48
2022/04/26 07:18:23;;;;;;;2.20;2.00;;;12.30;99.90;;;;;;5052410;28;20525;-46
2022/04/26 07:20:52;;;;;;;3.10;2.73;;;12.10;99.90;;;;;;5052206;28;20508;-46
2022/04/26 07:23:18;;;;;;;3.07;2.40;;;12.00;99.90;;;;;;5048608;28;20434;-47
2022/04/26 07:25:46;;;;;;;6.53;6.07;;;12.00;99.90;;;;;;5049554;28;20519;-46
2022/04/26 07:28:13;;;;;;;447.92;75.72;;;12.30;99.90;;;;;;5037216;28;20924;-47
2022/04/26 07:30:41;;;;;;;4.93;2.60;;;12.50;99.90;;;;;;5033239;28;20274;-46
2022/04/26 07:35:54;;;;;;;2.20;2.00;;;12.60;99.90;;;;;;5033073;28;20825;-47
2022/04/26 07:38:21;;;;;;;2.20;2.00;;;13.00;99.90;;;;;;5035365;28;20434;-47
2022/04/26 07:40:48;;;;;;;2.80;1.70;;;13.00;99.90;;;;;;5032599;28;20589;-46
2022/04/26 07:43:15;;;;;;;2.33;2.10;;;13.30;99.90;;;;;;5031351;28;20504;-46
2022/04/26 07:45:45;;;;;;;3.07;2.70;;;13.40;99.90;;;;;;5032503;28;20203;-46
2022/04/26 07:48:14;;;;;;;3.33;2.07;;;13.60;99.90;;;;;;5032559;28;20500;-46
2022/04/26 07:50:41;;;;;;;3.23;2.93;;;14.00;99.90;;;;;;5032789;28;20474;-46
2022/04/26 07:53:08;;;;;;;2.40;2.20;;;13.80;99.90;;;;;;5031815;28;20542;-49
2022/04/26 07:55:37;;;;;;;2.07;1.93;;;13.90;99.90;;;;;;5032611;28;20500;-45
2022/04/26 07:58:04;;;;;;;2.80;2.03;;;14.00;99.90;;;;;;5035017;28;21023;-50
2022/04/26 08:00:31;;;;;;;1.97;1.73;;;14.50;99.90;;;;;;5045365;28;20550;-46
2022/04/26 08:03:02;;;;;;;4.00;2.27;;;15.10;99.90;;;;;;5046700;28;20528;-47
2022/04/26 08:05:30;;;;;;;9.70;6.80;;;15.70;99.90;;;;;;5051967;28;20456;-48
2022/04/26 08:07:57;;;;;;;3.70;2.77;;;16.40;99.90;;;;;;5052229;28;20931;-50
2022/04/26 08:10:24;;;;;;;2.77;2.23;;;16.20;99.90;;;;;;5052032;28;20476;-46
2022/04/26 08:12:52;;;;;;;1.60;1.40;;;16.40;99.90;;;;;;5051908;28;20503;-49
2022/04/26 08:15:19;;;;;;;1.43;1.33;;;16.60;99.90;;;;;;5051844;28;20498;-46
2022/04/26 08:17:48;;;;;;;2.47;1.70;;;16.30;99.90;;;;;;5052101;28;20444;-48
2022/04/26 08:20:16;;;;;;;2.20;1.40;;;15.40;99.90;;;;;;5051804;28;20477;-46
2022/04/26 08:22:44;;;;;;;4.60;1.97;;;15.20;99.90;;;;;;5051660;28;20441;-46
2022/04/26 08:27:55;;;;;;;2.20;1.20;;;14.30;99.90;;;;;;5052198;28;20417;-47
2022/04/26 08:30:22;;;;;;;1.50;1.27;;;14.00;99.90;;;;;;5052008;28;20473;-46
2022/04/26 08:32:50;;;;;;;2.20;1.37;;;13.70;99.90;;;;;;5051613;28;20813;-46
2022/04/26 08:35:20;;;;;;;2.77;1.33;;;13.90;99.90;;;;;;5051723;28;20507;-49
2022/04/26 08:37:47;;;;;;;2.53;2.07;;;13.80;99.90;;;;;;5051611;28;21000;-46
2022/04/26 08:40:15;;;;;;;2.47;2.27;;;13.70;99.90;;;;;;5048977;28;20559;-49
2022/04/26 08:42:44;;;;;;;2.70;1.50;;;13.40;99.90;;;;;;5050027;28;20441;-47
2022/04/26 08:45:13;;;;;;;1.83;1.63;;;13.40;99.90;;;;;;5050259;28;20515;-46
2022/04/26 08:53:11;;;;;;;3.80;2.10;;;13.60;99.90;;;;;;5049884;28;20424;-47
2022/04/26 08:55:43;;;;;;;2.03;1.53;;;13.80;99.90;;;;;;5044788;28;20536;-48
2022/04/26 08:58:11;;;;;;;1.80;1.60;;;13.70;99.90;;;;;;5042386;28;20938;-50
2022/04/26 09:00:39;;;;;;;2.40;2.17;;;13.50;99.90;;;;;;5033769;28;20480;-49
2022/04/26 09:03:08;;;;;;;3.37;2.70;;;13.60;99.90;;;;;;5030584;28;20612;-48
2022/04/26 09:05:37;;;;;;;10.90;4.33;;;13.40;99.90;;;;;;5030237;28;20452;-46
2022/04/26 09:08:21;;;;;;;3.20;2.67;;;13.50;99.90;;;;;;5031073;28;20930;-46
2022/04/26 09:10:50;;;;;;;67.03;14.30;;;13.40;99.90;;;;;;5030729;28;20485;-45
2022/04/26 09:13:20;;;;;;;2.03;1.83;;;13.50;99.90;;;;;;5030911;28;20446;-48
2022/04/26 09:15:49;;;;;;;5.30;2.53;;;13.50;99.90;;;;;;5031015;28;20444;-49
2022/04/26 09:18:26;;;;;;;3.30;2.97;;;13.70;99.90;;;;;;5030597;28;20517;-47
2022/04/26 09:20:56;;;;;;;4.50;3.00;;;13.90;99.90;;;;;;5029912;28;20491;-46
2022/04/26 09:23:25;;;;;;;10.17;5.10;;;14.00;99.90;;;;;;5029790;28;20462;-47
2022/04/26 09:26:06;;;;;;;13.43;2.83;;;14.10;99.90;;;;;;5030075;28;20525;-46
2022/04/26 09:28:33;;;;;;;890.57;104.13;;;13.90;99.90;;;;;;5029538;28;20946;-48
2022/04/26 09:31:00;;;;;;;4.80;2.80;;;13.70;99.90;;;;;;5029743;28;20504;-46
2022/04/26 09:33:43;;;;;;;3.00;2.40;;;13.60;99.90;;;;;;5029447;28;20462;-48
2022/04/26 09:36:12;;;;;;;2.83;2.47;;;13.70;99.90;;;;;;5030659;28;20446;-46
2022/04/26 09:38:40;;;;;;;1.77;1.63;;;13.60;99.90;;;;;;5030854;28;20437;-49
2022/04/26 09:41:09;;;;;;;2.73;2.53;;;13.70;99.90;;;;;;5030813;28;20482;-45
2022/04/26 09:43:37;;;;;;;7.90;3.30;;;13.80;99.90;;;;;;5030329;28;20498;-46
2022/04/26 09:46:05;;;;;;;4.30;2.57;;;13.90;99.90;;;;;;5030063;28;21002;-49
2022/04/26 09:48:35;;;;;;;2.50;2.10;;;14.10;99.90;;;;;;5030024;28;20457;-47
2022/04/26 09:51:03;;;;;;;2.00;1.80;;;14.10;99.90;;;;;;5030137;28;20533;-47
2022/04/26 09:53:32;;;;;;;166.27;23.67;;;14.40;99.90;;;;;;5029292;28;20544;-46
2022/04/26 09:56:00;;;;;;;3.27;2.30;;;14.60;99.90;;;;;;5030070;28;20442;-46
2022/04/26 09:58:29;;;;;;;2.03;1.53;;;14.60;99.90;;;;;;5029848;28;20512;-47
2022/04/26 10:00:57;;;;;;;3.23;1.70;;;14.60;99.90;;;;;;5033678;28;20479;-46
2022/04/26 10:03:28;;;;;;;2.70;1.50;;;14.60;99.90;;;;;;5029243;28;20462;-47
2022/04/26 10:06:02;;;;;;;5.20;1.80;;;14.60;99.90;;;;;;5030623;28;20450;-46
2022/04/26 10:08:32;;;;;;;2.13;1.93;;;14.80;99.90;;;;;;5030358;28;20529;-46
2022/04/26 10:11:00;;;;;;;1.97;1.77;;;15.10;99.90;;;;;;5030885;28;20438;-48
2022/04/26 10:13:35;;;;;;;5.53;2.03;;;15.30;99.90;;;;;;5029993;28;20517;-46
2022/04/26 10:16:04;;;;;;;2.90;1.30;;;15.60;99.90;;;;;;5030043;28;20934;-46
2022/04/26 10:18:38;;;;;;;2.03;1.83;;;15.30;99.90;;;;;;5030507;28;20446;-48
2022/04/26 10:21:07;;;;;;;1.97;1.70;;;15.50;99.90;;;;;;5031429;28;20473;-46
2022/04/26 10:24:11;;;;;;;2.13;1.83;;;15.70;99.90;;;;;;5033821;28;21016;-49
2022/04/26 10:26:39;;;;;;;1.73;1.30;;;15.80;99.90;;;;;;5034201;28;20446;-47
2022/04/26 10:29:18;;;;;;;4.00;2.10;;;16.00;99.90;;;;;;5034464;28;20957;-47
2022/04/26 10:31:47;;;;;;;1.97;1.77;;;16.00;99.90;;;;;;5033003;28;20999;-46
2022/04/26 10:34:29;;;;;;;2.33;2.13;;;15.70;99.90;;;;;;5038631;28;20469;-47
2022/04/26 10:36:59;;;;;;;2.40;1.60;;;15.70;99.90;;;;;;5043357;28;20442;-46
2022/04/26 10:39:31;;;;;;;1.40;1.20;;;15.70;99.90;;;;;;5049573;28;20540;-46
2022/04/26 10:42:01;;;;;;;4.00;2.23;;;15.60;99.90;;;;;;5051918;28;20500;-46
2022/04/26 10:44:48;;;;;;;1.50;1.40;;;15.60;99.90;;;;;;5052053;28;20460;-47
2022/04/26 10:47:33;;;;;;;4.40;2.00;;;15.40;99.90;;;;;;5054003;28;20524;-48
2022/04/26 10:50:02;;;;;;;5.43;1.50;;;15.60;99.90;;;;;;5053079;28;20443;-46
2022/04/26 10:52:38;;;;;;;1.93;1.40;;;15.70;99.90;;;;;;5053487;28;20473;-43
2022/04/26 10:55:10;;;;;;;1.30;1.20;;;15.60;99.90;;;;;;5051898;28;20525;-45
2022/04/26 10:57:40;;;;;;;1.20;0.90;;;15.60;99.90;;;;;;5053268;28;20449;-45
2022/04/26 11:00:09;;;;;;;6.00;0.90;;;15.50;99.90;;;;;;5053104;28;20444;-46
2022/04/26 11:02:39;;;;;;;4.33;3.13;;;15.30;99.90;;;;;;5051933;28;20512;-49
2022/04/26 11:05:10;;;;;;;3.03;1.47;;;15.30;99.90;;;;;;5052827;28;20464;-48
2022/04/26 11:07:38;;;;;;;2.50;2.30;;;15.40;99.90;;;;;;5053160;28;20449;-47
2022/04/26 11:10:07;;;;;;;1.90;1.63;;;15.40;99.90;;;;;;5046922;28;21002;-47
2022/04/26 11:12:35;;;;;;;2.20;1.27;;;15.70;99.90;;;;;;5039537;28;20435;-46
2022/04/26 11:15:07;;;;;;;2.13;1.27;;;15.90;99.90;;;;;;5032859;28;21034;-45
2022/04/26 11:17:34;;;;;;;5.40;2.47;;;16.00;99.90;;;;;;5033251;28;20474;-46
2022/04/26 11:20:03;;;;;;;4.53;1.67;;;16.40;99.90;;;;;;5033395;28;21143;-45
2022/04/26 11:22:31;;;;;;;2.43;1.80;;;16.60;99.90;;;;;;5035604;28;21012;-47
2022/04/26 11:28:06;;;;;;;1.80;1.50;;;16.70;99.90;;;;;;5033002;28;20476;-48
2022/04/26 11:30:36;;;;;;;1.77;1.67;;;16.70;99.90;;;;;;5033026;28;20446;-47
2022/04/26 11:33:05;;;;;;;7.40;2.23;;;16.80;99.90;;;;;;5030820;28;20610;-47
2022/04/26 11:35:34;;;;;;;4.23;1.93;;;16.70;99.90;;;;;;5031589;28;20561;-46
2022/04/26 11:38:05;;;;;;;5.53;2.07;;;16.60;99.90;;;;;;5031637;28;20446;-50
2022/04/26 11:40:33;;;;;;;10.17;2.50;;;16.70;99.90;;;;;;5034256;28;21001;-45
2022/04/26 11:43:07;;;;;;;2.30;1.97;;;16.60;99.90;;;;;;5031227;28;20577;-46
2022/04/26 11:45:37;;;;;;;95.70;13.60;;;16.60;99.90;;;;;;5035765;28;20468;-46
2022/04/26 11:48:09;;;;;;;5.67;2.43;;;16.60;99.90;;;;;;5052381;28;20448;-46
2022/04/26 11:50:36;;;;;;;61.07;8.83;;;16.40;99.90;;;;;;5052822;28;20527;-48
2022/04/26 11:53:04;;;;;;;35.23;6.70;;;16.30;99.90;;;;;;5052252;28;20469;-46
2022/04/26 11:55:33;;;;;;;19.30;4.90;;;16.20;99.90;;;;;;5092469;22;20519;-45
2022/04/26 11:58:14;;;;;;;4.23;3.07;;;16.00;99.90;;;;;;5071777;28;20848;-44
2022/04/26 12:01:00;;;;;;;55.80;8.13;;;15.60;99.90;;;;;;5070881;28;21035;-44
2022/04/26 12:03:30;;;;;;;71.23;10.43;;;15.40;99.90;;;;;;5070378;28;20506;-43
2022/04/26 12:06:00;;;;;;;60.70;8.33;;;15.10;99.90;;;;;;5047774;28;20445;-44
2022/04/26 12:08:28;;;;;;;11.80;3.10;;;14.60;99.90;;;;;;5030615;28;20446;-44
2022/04/26 12:11:12;;;;;;;18.03;4.00;;;14.10;99.90;;;;;;5030727;28;20442;-43
2022/04/26 12:13:39;;;;;;;23.80;4.17;;;14.00;99.90;;;;;;5030540;28;20864;-43
2022/04/26 12:16:21;;;;;;;11.47;3.07;;;13.70;99.90;;;;;;5032904;28;20939;-43
2022/04/26 12:18:49;;;;;;;22.10;5.37;;;13.40;99.90;;;;;;5042443;28;20577;-44
2022/04/26 12:21:17;;;;;;;4.50;3.30;;;13.20;99.90;;;;;;5032066;28;20442;-43
2022/04/26 12:23:44;;;;;;;4.20;2.27;;;13.10;99.90;;;;;;5031557;28;20446;-44
2022/04/26 12:26:11;;;;;;;3.83;2.40;;;12.90;99.90;;;;;;5031989;28;20521;-43
2022/04/26 12:28:49;;;;;;;4.77;3.13;;;12.90;99.90;;;;;;5031915;28;20507;-43
2022/04/26 12:31:26;;;;;;;14.20;2.60;;;12.70;99.90;;;;;;5031827;28;20503;-43
2022/04/26 12:34:12;;;;;;;13.83;4.33;;;12.50;99.90;;;;;;5031227;28;20474;-46
2022/04/26 12:36:59;;;;;;;3.63;2.60;;;12.30;99.90;;;;;;5032266;28;20424;-46
2022/04/26 12:39:41;;;;;;;6.10;2.33;;;11.90;99.90;;;;;;5032688;28;20445;-45
2022/04/26 12:42:09;;;;;;;41.80;4.93;;;11.50;99.90;;;;;;5032837;28;20484;-45
2022/04/26 12:44:37;;;;;;;39.07;5.03;;;10.70;99.90;;;;;;5033651;28;20829;-45
2022/04/26 12:52:48;;;;;;;1.37;0.60;;;9.10;99.90;;;;;;5034197;28;20442;-45
2022/04/26 12:55:27;;;;;;;16.87;2.10;;;8.80;99.90;;;;;;5032989;28;20660;-45
2022/04/26 12:57:58;;;;;;;9.83;1.73;;;8.70;99.90;;;;;;5033236;28;20946;-45
2022/04/26 13:00:26;;;;;;;7.43;1.60;;;8.40;99.90;;;;;;5033442;28;20462;-45
2022/04/26 13:02:56;;;;;;;6.70;1.23;;;8.50;99.90;;;;;;5033382;28;20750;-44
2022/04/26 13:05:23;;;;;;;2.83;0.90;;;8.30;99.90;;;;;;5032580;28;20470;-44
2022/04/26 13:07:52;;;;;;;2.40;0.87;;;7.90;99.90;;;;;;5033823;28;20473;-46
2022/04/26 13:10:20;;;;;;;3.20;0.90;;;7.50;99.90;;;;;;5034249;28;20457;-47
2022/04/26 13:12:47;;;;;;;1.50;0.60;;;7.30;99.90;;;;;;5033807;28;20434;-47
2022/04/26 13:15:15;;;;;;;1.20;0.70;;;7.10;99.90;;;;;;5032397;28;20797;-48
2022/04/26 13:17:43;;;;;;;2.20;0.73;;;7.20;99.90;;;;;;5033618;28;20488;-48
2022/04/26 13:20:13;;;;;;;0.83;0.60;;;7.00;99.90;;;;;;5032412;28;20882;-48
2022/04/26 13:22:40;;;;;;;1.00;0.70;;;6.80;99.90;;;;;;5032032;28;20524;-49
2022/04/26 13:25:08;;;;;;;1.80;0.80;;;6.80;99.90;;;;;;5032404;28;20465;-50
2022/04/26 13:27:37;;;;;;;0.83;0.70;;;6.70;99.90;;;;;;5032804;28;20493;-54
2022/04/26 13:30:06;;;;;;;1.47;0.80;;;6.70;99.90;;;;;;5032021;28;20471;-51
2022/04/26 13:32:33;;;;;;;0.90;0.80;;;6.70;99.90;;;;;;5031721;28;20449;-53
2022/04/26 13:35:01;;;;;;;1.83;0.60;;;6.60;99.90;;;;;;5031342;28;20473;-53
2022/04/26 13:37:30;;;;;;;1.10;0.67;;;6.50;99.90;;;;;;5032363;28;20485;-53
2022/04/26 13:39:58;;;;;;;0.90;0.60;;;6.30;99.90;;;;;;5032311;28;20487;-52
2022/04/26 13:42:27;;;;;;;2.30;1.47;;;6.10;99.90;;;;;;5029996;28;20484;-56
2022/04/26 13:44:55;;;;;;;2.87;0.60;;;5.90;99.90;;;;;;5030483;28;20474;-53
2022/04/26 13:47:22;;;;;;;1.13;0.80;;;5.90;99.90;;;;;;5046112;28;20441;-52
2022/04/26 13:49:49;;;;;;;1.03;0.77;;;5.80;99.90;;;;;;5049743;28;20483;-53
2022/04/26 13:52:16;;;;;;;0.80;0.63;;;5.80;99.90;;;;;;5052148;28;20448;-53
2022/04/26 13:54:44;;;;;;;2.40;1.40;;;5.70;99.90;;;;;;5051443;28;20927;-52
2022/04/26 13:57:11;;;;;;;2.00;0.83;;;5.60;99.90;;;;;;5056568;28;20234;-52
2022/04/26 13:59:38;;;;;;;1.20;0.70;;;5.60;99.90;;;;;;5056402;28;20503;-51
2022/04/26 14:02:07;;;;;;;1.70;0.60;;;5.50;99.90;;;;;;5043610;28;20481;-51
2022/04/26 14:04:34;;;;;;;1.13;0.70;;;5.50;99.90;;;;;;5036882;28;20535;-52
2022/04/26 14:07:02;;;;;;;1.00;0.50;;;5.60;99.90;;;;;;5038221;28;20449;-52
2022/04/26 14:09:29;;;;;;;0.80;0.80;;;5.40;99.90;;;;;;5037312;28;20492;-55
2022/04/26 14:11:57;;;;;;;0.90;0.70;;;5.40;99.90;;;;;;5036585;28;20469;-52
2022/04/26 14:22:38;;;;;;;3.50;1.67;;;5.60;99.90;;;;;;5035392;28;20519;-53
2022/04/26 14:25:08;;;;;;;3.10;2.00;;;5.80;99.90;;;;;;5035849;28;20493;-58
2022/04/26 14:27:38;;;;;;;5.67;3.10;;;5.90;99.90;;;;;;5036819;28;20451;-54
2022/04/26 14:30:07;;;;;;;9.20;4.93;;;6.10;99.90;;;;;;5036414;28;20452;-54
2022/04/26 14:32:34;;;;;;;2.00;1.47;;;6.40;99.90;;;;;;5036031;28;20446;-56
2022/04/26 14:35:02;;;;;;;2.23;1.97;;;6.60;99.90;;;;;;5036425;28;20462;-53
2022/04/26 14:37:29;;;;;;;2.03;1.90;;;7.00;99.90;;;;;;5037220;28;20473;-52
2022/04/26 14:39:55;;;;;;;2.40;1.10;;;7.10;99.90;;;;;;5037611;28;20561;-53
2022/04/26 14:42:23;;;;;;;2.10;1.20;;;7.40;99.90;;;;;;5036365;28;20516;-57
2022/04/26 14:44:52;;;;;;;2.30;1.27;;;7.60;99.90;;;;;;5036918;28;20470;-52
2022/04/26 14:47:19;;;;;;;1.53;1.10;;;7.50;99.90;;;;;;5037623;28;20445;-53
2022/04/26 14:49:46;;;;;;;6.20;5.53;;;7.70;99.90;;;;;;5037822;28;20503;-52
2022/04/26 14:52:21;;;;;;;2.20;1.27;;;7.90;99.90;;;;;;5036944;28;20450;-52
2022/04/26 14:54:48;;;;;;;2.53;1.10;;;7.60;99.90;;;;;;5036644;28;20483;-51
2022/04/26 14:57:17;;;;;;;11.73;9.37;;;7.00;99.90;;;;;;5036500;28;20769;-51
2022/04/26 14:59:46;;;;;;;2.20;1.93;;;7.30;99.90;;;;;;5037422;28;20823;-51
2022/04/26 15:02:16;;;;;;;1.40;0.83;;;7.70;99.90;;;;;;5036753;28;20513;-51
2022/04/26 15:04:43;;;;;;;1.70;1.60;;;8.10;99.90;;;;;;5036648;28;20501;-50
2022/04/26 15:07:11;;;;;;;3.80;3.50;;;8.30;99.90;;;;;;5035203;28;20515;-50
2022/04/26 15:09:43;;;;;;;2.07;1.10;;;8.50;99.90;;;;;;5035454;28;20935;-50
2022/04/26 15:17:42;;;;;;;0.90;0.70;;;8.80;99.90;;;;;;5036045;28;20422;-50
2022/04/26 15:20:10;;;;;;;2.00;1.57;;;9.00;99.90;;;;;;5035091;28;20997;-49
2022/04/26 15:22:38;;;;;;;10.33;5.80;;;9.10;99.90;;;;;;5034573;28;20493;-51
2022/04/26 15:25:07;;;;;;;3.63;1.70;;;9.20;99.90;;;;;;5035321;28;20470;-50
2022/04/26 15:27:36;;;;;;;1.00;0.80;;;9.30;99.90;;;;;;5035130;28;20446;-50
2022/04/26 15:30:05;;;;;;;2.57;1.50;;;9.40;99.90;;;;;;5035295;28;20544;-49
2022/04/26 15:32:32;;;;;;;1.60;0.87;;;9.40;99.90;;;;;;5034672;28;20470;-49
2022/04/26 15:35:01;;;;;;;0.77;0.50;;;9.40;99.90;;;;;;5035265;28;20466;-49
2022/04/26 15:37:29;;;;;;;1.13;0.77;;;9.40;99.90;;;;;;5034826;28;20825;-50
2022/04/26 15:39:58;;;;;;;3.00;0.80;;;9.40;99.90;;;;;;5035081;28;20453;-49
2022/04/26 15:42:25;;;;;;;1.20;0.73;;;9.50;99.90;;;;;;5034703;28;20484;-49
2022/04/26 15:44:52;;;;;;;1.57;0.63;;;9.50;99.90;;;;;;5034495;28;20462;-51
2022/04/26 15:47:20;;;;;;;0.93;0.70;;;9.60;99.90;;;;;;5034516;28;20460;-47
2022/04/26 15:49:47;;;;;;;4.90;1.17;;;9.70;99.90;;;;;;5034473;28;20480;-49
2022/04/26 15:52:15;;;;;;;1.42;0.50;;;9.80;99.90;;;;;;5033198;28;20445;-48
2022/04/26 15:54:43;;;;;;;1.30;0.80;;;9.90;99.90;;;;;;5033645;28;20286;-47
2022/04/26 15:57:11;;;;;;;0.97;0.60;;;9.90;99.90;;;;;;5033692;28;20894;-46
2022/04/26 15:59:39;;;;;;;0.90;0.70;;;10.00;99.90;;;;;;5033952;28;20500;-47
2022/04/26 16:02:07;;;;;;;2.77;0.90;;;10.00;99.90;;;;;;5033453;28;20462;-47
2022/04/26 16:04:35;;;;;;;2.57;1.10;;;10.00;99.90;;;;;;5032893;28;20498;-48
2022/04/26 16:07:02;;;;;;;1.93;0.80;;;10.00;99.90;;;;;;5033364;28;20433;-47
2022/04/26 16:20:32;;;;;;;1.70;1.20;;;10.10;99.90;;;;;;5032013;28;20908;-47
2022/04/26 16:23:02;;;;;;;1.70;1.30;;;9.60;99.90;;;;;;5031906;28;20494;-47
2022/04/26 16:25:31;;;;;;;1.00;0.90;;;9.40;99.90;;;;;;5032753;28;20465;-47
2022/04/26 16:28:00;;;;;;;1.40;1.30;;;9.50;99.90;;;;;;5031461;28;20504;-47
2022/04/26 16:30:29;;;;;;;1.77;1.67;;;9.50;99.90;;;;;;5031090;28;20454;-46
2022/04/26 16:32:57;;;;;;;2.70;2.13;;;9.60;99.90;;;;;;5030999;28;20537;-47
2022/04/26 16:35:24;;;;;;;2.90;2.67;;;9.50;99.90;;;;;;5030742;28;20547;-47
2022/04/26 16:37:52;;;;;;;1.73;1.63;;;9.50;99.90;;;;;;5031556;28;20438;-46
2022/04/26 16:40:19;;;;;;;2.53;1.53;;;9.50;99.90;;;;;;5030821;28;20453;-47
2022/04/26 16:42:48;;;;;;;2.97;2.40;;;9.50;99.90;;;;;;5031396;28;20539;-46
2022/04/26 16:45:15;;;;;;;2.80;2.60;;;9.40;99.90;;;;;;5031429;28;20986;-46
2022/04/26 16:47:42;;;;;;;3.40;3.10;;;9.50;99.90;;;;;;5031445;28;20481;-47
2022/04/26 16:50:12;;;;;;;3.60;3.30;;;9.30;99.90;;;;;;5031404;28;20481;-46
2022/04/26 16:52:40;;;;;;;3.83;3.53;;;9.30;99.90;;;;;;5031461;28;20969;-47
2022/04/26 16:55:07;;;;;;;1.80;1.70;;;9.20;99.90;;;;;;5031426;28;20470;-46
2022/04/26 16:57:34;;;;;;;2.50;2.30;;;9.20;99.90;;;;;;5031830;28;20485;-46
2022/04/26 17:00:04;;;;;;;1.70;1.60;;;9.10;99.90;;;;;;5031625;28;20474;-46
2022/04/26 17:02:33;;;;;;;1.97;1.77;;;9.10;99.90;;;;;;5031247;28;20507;-46
2022/04/26 17:05:00;;;;;;;2.30;2.10;;;9.10;99.90;;;;;;5030846;28;20469;-46
2022/04/26 17:07:27;;;;;;;3.40;2.23;;;9.30;99.90;;;;;;5031035;28;20446;-46
2022/04/26 17:09:54;;;;;;;2.30;1.87;;;9.50;99.90;;;;;;5030480;28;20459;-46
2022/04/26 17:12:21;;;;;;;2.70;2.50;;;9.60;99.90;;;;;;5030342;28;20534;-45
2022/04/26 17:14:49;;;;;;;2.10;1.90;;;9.70;99.90;;;;;;5030122;28;20550;-44
2022/04/26 17:17:17;;;;;;;1.53;1.33;;;9.70;99.90;;;;;;5030503;28;20442;-45
2022/04/26 17:19:44;;;;;;;1.77;1.63;;;9.70;99.90;;;;;;5030714;28;20457;-46
2022/04/26 17:22:11;;;;;;;2.40;2.20;;;9.70;99.90;;;;;;5031188;28;20504;-45
2022/04/26 17:27:23;;;;;;;1.83;1.43;;;9.40;99.90;;;;;;5031025;28;20437;-46